Time;durP1;ratioP1;P1;durP2;ratioP2;P2;SDS_P1;SDS_P2;PMS_P1;PMS_P2;Temp;Humidity;BMP_temperature;BMP_pressure;BME280_temperature;BME280_humidity;BME280_pressure;Samples;Min_cycle;Max_cycle;Signal;HPM_P1;HPM_P2
2024/04/06 00:06:10;;;;;;;;;;;11.30;99.90;;;;;;21125377;28;19916;-79
2024/04/06 00:16:11;;;;;;;;;;;11.20;99.90;;;;;;21119952;28;20364;-79
2024/04/06 00:26:12;;;;;;;;;;;10.80;99.90;;;;;;21119169;28;19922;-79
2024/04/06 00:36:13;;;;;;;;;;;10.70;99.90;;;;;;21128135;28;20011;-79
2024/04/06 00:46:13;;;;;;;;;;;10.40;99.90;;;;;;21121478;28;19919;-79
2024/04/06 00:56:14;;;;;;;;;;;10.20;99.90;;;;;;21125914;28;19923;-79
2024/04/06 01:06:15;;;;;;;;;;;10.20;99.90;;;;;;21119163;28;19916;-79
2024/04/06 01:16:15;;;;;;;;;;;10.10;99.90;;;;;;21123335;28;19923;-79
2024/04/06 01:26:16;;;;;;;;;;;9.90;99.90;;;;;;21130507;28;19930;-79
2024/04/06 01:36:16;;;;;;;;;;;10.10;99.90;;;;;;21130793;28;20363;-80
2024/04/06 01:46:19;;;;;;;;;;;10.00;99.90;;;;;;21126496;28;19923;-79
2024/04/06 01:56:20;;;;;;;;;;;9.80;99.90;;;;;;21124903;28;19931;-79
2024/04/06 02:06:20;;;;;;;;;;;10.30;99.90;;;;;;21134726;28;19959;-79
2024/04/06 02:16:21;;;;;;;;;;;10.30;99.90;;;;;;21125431;28;19920;-79
2024/04/06 02:26:21;;;;;;;;;;;10.30;99.90;;;;;;21124233;28;19916;-79
2024/04/06 02:36:22;;;;;;;;;;;10.20;99.90;;;;;;21139004;28;20373;-80
2024/04/06 02:46:23;;;;;;;;;;;10.00;99.90;;;;;;21121509;28;19969;-79
2024/04/06 02:56:23;;;;;;;;;;;10.00;99.90;;;;;;21141008;28;19958;-79
2024/04/06 03:06:24;;;;;;;;;;;9.90;99.90;;;;;;21123226;28;19937;-79
2024/04/06 03:16:24;;;;;;;;;;;10.00;99.90;;;;;;21111610;28;20024;-79
2024/04/06 03:26:25;;;;;;;;;;;9.80;99.90;;;;;;21108758;28;19916;-79
2024/04/06 03:36:26;;;;;;;;;;;9.80;99.90;;;;;;21128801;28;20405;-79
2024/04/06 03:46:27;;;;;;;;;;;9.70;99.90;;;;;;21088333;28;19966;-79
2024/04/06 03:56:28;;;;;;;;;;;9.60;99.90;;;;;;21106654;28;20403;-79
2024/04/06 04:06:28;;;;;;;;;;;9.40;99.90;;;;;;21117201;28;19921;-79
2024/04/06 04:16:29;;;;;;;;;;;9.30;99.90;;;;;;21133421;28;20302;-77
2024/04/06 04:26:30;;;;;;;;;;;9.00;99.90;;;;;;21140584;28;19958;-77
2024/04/06 04:36:30;;;;;;;;;;;8.90;99.90;;;;;;21128431;28;20302;-77
2024/04/06 04:46:31;;;;;;;;;;;8.70;99.90;;;;;;21128461;28;19927;-77
2024/04/06 04:56:32;;;;;;;;;;;8.90;99.90;;;;;;21136959;28;20267;-78
2024/04/06 05:06:32;;;;;;;;;;;9.20;99.90;;;;;;21132738;28;19916;-77
2024/04/06 05:16:33;;;;;;;;;;;9.20;99.90;;;;;;21129238;28;19916;-76
2024/04/06 05:26:34;;;;;;;;;;;8.80;99.90;;;;;;21131771;28;19916;-77
2024/04/06 05:36:34;;;;;;;;;;;8.90;99.90;;;;;;21145151;28;19951;-77
2024/04/06 05:46:35;;;;;;;;;;;9.10;99.90;;;;;;21130913;28;20347;-80
2024/04/06 05:56:36;;;;;;;;;;;9.80;99.90;;;;;;21134279;28;19938;-80
2024/04/06 06:06:37;;;;;;;;;;;10.40;99.90;;;;;;21143368;28;20010;-81
2024/04/06 06:16:37;;;;;;;;;;;10.90;99.90;;;;;;21156908;28;19916;-81
2024/04/06 06:26:38;;;;;;;;;;;10.50;99.90;;;;;;21138099;28;19959;-80
2024/04/06 06:36:39;;;;;;;;;;;10.90;99.90;;;;;;21152766;28;19912;-78
2024/04/06 06:46:39;;;;;;;;;;;11.40;99.90;;;;;;21138591;28;19920;-81
2024/04/06 06:56:40;;;;;;;;;;;11.60;99.90;;;;;;21147438;28;19920;-81
2024/04/06 07:06:41;;;;;;;;;;;12.10;99.90;;;;;;21146096;28;20574;-80
2024/04/06 07:16:42;;;;;;;;;;;12.50;99.90;;;;;;21179601;28;20443;-80
2024/04/06 07:26:43;;;;;;;;;;;12.70;99.90;;;;;;21122497;28;19973;-78
2024/04/06 07:36:43;;;;;;;;;;;13.30;99.90;;;;;;21128021;28;19965;-79
2024/04/06 07:46:44;;;;;;;;;;;14.00;99.90;;;;;;21172577;28;19916;-80
2024/04/06 07:56:44;;;;;;;;;;;14.60;99.90;;;;;;21124212;28;19920;-80
2024/04/06 08:06:45;;;;;;;;;;;15.50;99.90;;;;;;21115668;28;19947;-79
2024/04/06 08:16:46;;;;;;;;;;;16.60;99.90;;;;;;21143844;28;20426;-80
2024/04/06 08:26:47;;;;;;;;;;;16.90;99.90;;;;;;21140438;28;19915;-81
2024/04/06 08:36:47;;;;;;;;;;;17.70;99.90;;;;;;21157167;28;19980;-79
2024/04/06 08:46:48;;;;;;;;;;;17.80;99.90;;;;;;21141824;28;19916;-79
2024/04/06 08:56:49;;;;;;;;;;;19.30;99.90;;;;;;21133087;28;20461;-80
2024/04/06 09:06:50;;;;;;;;;;;19.10;99.90;;;;;;21173872;28;19927;-79
2024/04/06 09:16:53;;;;;;;;;;;19.00;99.90;;;;;;21165519;28;19920;-78
2024/04/06 09:27:11;;;;;;;;;;;18.60;99.90;;;;;;21136402;28;19966;-77
2024/04/06 09:37:12;;;;;;;;;;;19.30;99.90;;;;;;21127633;28;20010;-78
2024/04/06 09:47:13;;;;;;;;;;;19.60;99.90;;;;;;21132019;28;19951;-77
2024/04/06 09:57:14;;;;;;;;;;;19.80;99.90;;;;;;21120348;28;19912;-78
2024/04/06 10:07:25;;;;;;;;;;;20.80;99.90;;;;;;21151219;28;19919;-77
2024/04/06 10:17:26;;;;;;;;;;;20.60;99.90;;;;;;21138480;28;20328;-79
2024/04/06 10:27:28;;;;;;;;;;;20.80;99.90;;;;;;21137899;28;20010;-79
2024/04/06 10:37:29;;;;;;;;;;;23.20;99.90;;;;;;21132743;28;19912;-79
2024/04/06 10:47:29;;;;;;;;;;;25.10;99.90;;;;;;21141776;28;19916;-78
2024/04/06 10:57:32;;;;;;;;;;;26.30;99.90;;;;;;21161076;28;20499;-79
2024/04/06 11:07:33;;;;;;;;;;;26.60;99.90;;;;;;21130066;28;19923;-78
2024/04/06 11:17:34;;;;;;;;;;;27.30;99.90;;;;;;21137403;28;20416;-80
2024/04/06 11:27:35;;;;;;;;;;;27.80;99.90;;;;;;21147750;28;19923;-79
2024/04/06 11:37:35;;;;;;;;;;;27.00;97.90;;;;;;21129626;28;20275;-79
2024/04/06 11:47:36;;;;;;;;;;;26.50;97.50;;;;;;21131075;28;19922;-78
2024/04/06 11:57:37;;;;;;;;;;;26.70;95.80;;;;;;21133658;28;20053;-78
2024/04/06 12:07:39;;;;;;;;;;;27.10;95.70;;;;;;21150139;28;19947;-75
2024/04/06 12:17:39;;;;;;;;;;;27.80;93.40;;;;;;21141637;28;20268;-77
2024/04/06 12:27:40;;;;;;;;;;;27.90;94.10;;;;;;21154934;28;19919;-76
2024/04/06 12:37:43;;;;;;;;;;;26.60;92.00;;;;;;21172414;28;19947;-76
2024/04/06 12:47:43;;;;;;;;;;;26.40;92.80;;;;;;21164949;28;20437;-75
2024/04/06 12:57:44;;;;;;;;;;;26.60;91.80;;;;;;21156787;28;19911;-77
2024/04/06 13:07:45;;;;;;;;;;;27.00;90.30;;;;;;21169926;28;20370;-76
2024/04/06 13:17:46;;;;;;;;;;;26.70;91.10;;;;;;21150932;28;19961;-77
2024/04/06 13:27:49;;;;;;;;;;;27.00;86.60;;;;;;21149497;28;19920;-75
2024/04/06 13:37:50;;;;;;;;;;;27.90;84.40;;;;;;21147817;28;19916;-75
2024/04/06 13:47:50;;;;;;;;;;;27.40;87.70;;;;;;21155708;28;19926;-76
2024/04/06 13:57:54;;;;;;;;;;;27.90;79.70;;;;;;21157924;28;19920;-75
2024/04/06 14:07:54;;;;;;;;;;;28.40;82.10;;;;;;21139889;28;19916;-76
2024/04/06 14:17:56;;;;;;;;;;;28.40;78.90;;;;;;21118599;28;19985;-78
2024/04/06 14:27:57;;;;;;;;;;;28.40;79.20;;;;;;21107452;28;19916;-76
2024/04/06 14:38:00;;;;;;;;;;;27.70;81.00;;;;;;21132544;28;19919;-76
2024/04/06 14:48:00;;;;;;;;;;;27.70;77.20;;;;;;21161673;28;19920;-76
2024/04/06 14:58:02;;;;;;;;;;;27.90;78.30;;;;;;21155773;28;19941;-76
2024/04/06 15:08:03;;;;;;;;;;;27.80;79.20;;;;;;21152774;28;19916;-76
2024/04/06 15:18:05;;;;;;;;;;;27.70;76.40;;;;;;21159641;28;19915;-76
2024/04/06 15:28:05;;;;;;;;;;;27.70;74.20;;;;;;21159089;28;19931;-75
2024/04/06 15:38:06;;;;;;;;;;;27.10;76.50;;;;;;21157903;28;19911;-76
2024/04/06 15:48:06;;;;;;;;;;;27.40;79.40;;;;;;21157724;28;19958;-76
2024/04/06 15:58:07;;;;;;;;;;;27.30;78.20;;;;;;21158331;28;19912;-75
2024/04/06 16:08:08;;;;;;;;;;;26.40;72.20;;;;;;21156138;28;19922;-75
2024/04/06 16:18:08;;;;;;;;;;;26.40;76.70;;;;;;21157811;28;19916;-75
2024/04/06 16:28:10;;;;;;;;;;;26.20;75.00;;;;;;21159901;28;19922;-77
2024/04/06 16:38:11;;;;;;;;;;;25.80;75.50;;;;;;21133945;28;19916;-77
2024/04/06 16:48:12;;;;;;;;;;;25.10;78.40;;;;;;21141911;28;20386;-75
2024/04/06 16:58:13;;;;;;;;;;;24.90;77.40;;;;;;21155202;28;19919;-75
2024/04/06 17:08:14;;;;;;;;;;;24.40;85.20;;;;;;21154851;28;19923;-74
2024/04/06 17:18:15;;;;;;;;;;;23.40;88.70;;;;;;21166930;28;19919;-76
2024/04/06 17:28:16;;;;;;;;;;;22.70;93.70;;;;;;21169622;28;19915;-76
2024/04/06 17:38:16;;;;;;;;;;;22.50;88.20;;;;;;21168651;28;19911;-76
2024/04/06 17:48:17;;;;;;;;;;;21.50;92.40;;;;;;21170029;28;19916;-76
2024/04/06 17:58:20;;;;;;;;;;;20.80;95.30;;;;;;21119849;28;19912;-76
2024/04/06 18:08:21;;;;;;;;;;;19.40;98.80;;;;;;21164598;28;20018;-76
2024/04/06 18:18:21;;;;;;;;;;;18.70;99.90;;;;;;21161973;28;20334;-77
2024/04/06 18:28:22;;;;;;;;;;;19.10;99.90;;;;;;21159650;28;19919;-78
2024/04/06 18:38:24;;;;;;;;;;;17.60;99.90;;;;;;21161468;28;19935;-77
2024/04/06 18:48:25;;;;;;;;;;;17.30;99.90;;;;;;21154004;28;19962;-77
2024/04/06 18:58:26;;;;;;;;;;;17.90;99.90;;;;;;21123310;28;19920;-76
2024/04/06 19:08:27;;;;;;;;;;;17.30;99.90;;;;;;21161744;28;20304;-76
2024/04/06 19:18:28;;;;;;;;;;;17.50;99.90;;;;;;21159117;28;19959;-76
2024/04/06 19:28:28;;;;;;;;;;;17.70;99.90;;;;;;21155519;28;20271;-77
2024/04/06 19:38:32;;;;;;;;;;;17.10;99.90;;;;;;21157674;28;19964;-77
2024/04/06 19:48:32;;;;;;;;;;;16.80;99.90;;;;;;21150206;28;20418;-76
2024/04/06 19:58:33;;;;;;;;;;;15.90;99.90;;;;;;21153460;28;19912;-76
2024/04/06 20:08:35;;;;;;;;;;;15.40;99.90;;;;;;21153822;28;19916;-76
2024/04/06 20:18:36;;;;;;;;;;;15.00;99.90;;;;;;21136061;28;20374;-75
2024/04/06 20:28:37;;;;;;;;;;;15.10;99.90;;;;;;21118536;28;19916;-77
2024/04/06 20:38:37;;;;;;;;;;;15.40;99.90;;;;;;21114458;28;20431;-77
2024/04/06 20:48:38;;;;;;;;;;;15.40;99.90;;;;;;21121137;28;19916;-77
2024/04/06 20:58:39;;;;;;;;;;;15.40;99.90;;;;;;21150393;28;20402;-76
2024/04/06 21:08:43;;;;;;;;;;;15.40;99.90;;;;;;21173141;28;19960;-77
2024/04/06 21:18:44;;;;;;;;;;;15.10;99.90;;;;;;21170470;28;20263;-77
2024/04/06 21:28:44;;;;;;;;;;;15.10;99.90;;;;;;21169197;28;19916;-76
2024/04/06 21:38:45;;;;;;;;;;;14.90;99.90;;;;;;21168959;28;20011;-77
2024/04/06 21:48:46;;;;;;;;;;;14.50;99.90;;;;;;21167570;28;20387;-76
2024/04/06 21:58:46;;;;;;;;;;;14.30;99.90;;;;;;21160790;28;20508;-77
2024/04/06 22:08:47;;;;;;;;;;;14.50;99.90;;;;;;21166590;28;19922;-76
2024/04/06 22:18:48;;;;;;;;;;;14.40;99.90;;;;;;21165185;28;19947;-77
2024/04/06 22:28:48;;;;;;;;;;;14.20;99.90;;;;;;21164578;28;20004;-77
2024/04/06 22:38:49;;;;;;;;;;;14.20;99.90;;;;;;21167448;28;20004;-76
2024/04/06 22:48:50;;;;;;;;;;;13.90;99.90;;;;;;21162623;28;20346;-77
2024/04/06 22:58:51;;;;;;;;;;;13.70;99.90;;;;;;21161530;28;19951;-77
2024/04/06 23:08:51;;;;;;;;;;;14.00;99.90;;;;;;21159858;28;20369;-77
2024/04/06 23:18:52;;;;;;;;;;;13.90;99.90;;;;;;21159813;28;19927;-77
2024/04/06 23:28:52;;;;;;;;;;;13.70;99.90;;;;;;21159582;28;19958;-76
2024/04/06 23:38:53;;;;;;;;;;;14.10;99.90;;;;;;21158553;28;19951;-76
2024/04/06 23:48:54;;;;;;;;;;;14.40;99.90;;;;;;21158980;28;19955;-76
2024/04/06 23:58:54;;;;;;;;;;;14.40;99.90;;;;;;21157273;28;19915;-76
